createdAt,value
2017-05-26T00:00:15.628Z,988.3
2017-05-26T00:01:26.992Z,988.3
2017-05-26T00:02:29.631Z,988.3
2017-05-26T00:03:32.067Z,988.2
2017-05-26T00:04:34.525Z,988.2
2017-05-26T00:05:37.186Z,988.2
2017-05-26T00:06:39.643Z,988.2
2017-05-26T00:07:42.131Z,988.1
2017-05-26T00:08:44.616Z,988.2
2017-05-26T00:09:47.141Z,988.2
2017-05-26T00:10:49.614Z,988.2
2017-05-26T00:11:52.163Z,988.2
2017-05-26T00:12:54.629Z,988
2017-05-26T00:13:57.184Z,988.1
2017-05-26T00:14:59.683Z,988.2
2017-05-26T00:16:02.133Z,988.1
2017-05-26T00:17:04.646Z,988.2
2017-05-26T00:18:07.104Z,988.1
2017-05-26T00:19:09.618Z,988.1
2017-05-26T00:20:12.162Z,988.1
2017-05-26T00:21:14.671Z,988.2
2017-05-26T00:22:17.282Z,988.2
2017-05-26T00:23:19.858Z,988.2
2017-05-26T00:24:22.529Z,988.2
2017-05-26T00:25:25.085Z,988.2
2017-05-26T00:26:27.588Z,988.2
2017-05-26T00:27:30.051Z,988.2
2017-05-26T00:28:32.551Z,988.2
2017-05-26T00:29:35.009Z,988.2
2017-05-26T00:30:38.481Z,988.2
2017-05-26T00:31:40.936Z,988.2
2017-05-26T00:32:43.447Z,988.2
2017-05-26T00:33:45.942Z,988.1
2017-05-26T00:34:48.422Z,988.2
2017-05-26T00:35:50.961Z,988.2
2017-05-26T00:36:53.425Z,988.2
2017-05-26T00:37:55.857Z,988.2
2017-05-26T00:38:58.296Z,988.1
2017-05-26T00:40:00.825Z,988.1
2017-05-26T00:41:03.314Z,988.2
2017-05-26T00:42:05.829Z,988.2
2017-05-26T00:43:08.286Z,988.2
2017-05-26T00:44:10.851Z,988.2
2017-05-26T00:45:13.432Z,988.2
2017-05-26T00:46:15.878Z,988.2
2017-05-26T00:47:18.407Z,988.2
2017-05-26T00:48:20.929Z,988.2
2017-05-26T00:49:23.474Z,988.2
2017-05-26T00:50:26.319Z,988.2
2017-05-26T00:51:28.832Z,988.2
2017-05-26T00:52:31.222Z,988.2
2017-05-26T00:53:33.816Z,988.1
2017-05-26T00:54:36.262Z,988.2
2017-05-26T00:55:38.785Z,988.2
2017-05-26T00:56:41.211Z,988.2
2017-05-26T00:57:43.699Z,988.2
2017-05-26T00:58:46.150Z,988.3
2017-05-26T00:59:48.622Z,988.3
2017-05-26T01:00:51.134Z,988.3
2017-05-26T01:01:53.606Z,988.2
2017-05-26T01:02:56.082Z,988.3
2017-05-26T01:03:58.552Z,988.3
2017-05-26T01:05:01.018Z,988.3
2017-05-26T01:06:03.504Z,988.2
2017-05-26T01:07:05.996Z,988.2
2017-05-26T01:08:08.475Z,988.2
2017-05-26T01:09:10.893Z,988.2
2017-05-26T01:10:13.457Z,988.2
2017-05-26T01:11:16.974Z,988.3
2017-05-26T01:12:19.562Z,988.3
2017-05-26T01:13:22.197Z,988.3
2017-05-26T01:14:24.719Z,988.2
2017-05-26T01:15:27.442Z,988.2
2017-05-26T01:16:30.048Z,988.3
2017-05-26T01:17:32.828Z,988.2
2017-05-26T01:18:35.995Z,988.3
2017-05-26T01:19:38.434Z,988.3
2017-05-26T01:20:40.941Z,988.2
2017-05-26T01:21:43.671Z,988.2
2017-05-26T01:22:46.108Z,988.2
2017-05-26T01:23:48.550Z,988.2
2017-05-26T01:24:51.001Z,988.2
2017-05-26T01:25:53.526Z,988.2
2017-05-26T01:26:56.138Z,988.2
2017-05-26T01:27:58.564Z,988.2
2017-05-26T01:29:01.036Z,988.2
2017-05-26T01:30:05.985Z,988.2
2017-05-26T01:31:08.437Z,988.1
2017-05-26T01:32:10.985Z,988.2
2017-05-26T01:33:13.431Z,988.1
2017-05-26T01:34:16.637Z,988.2
2017-05-26T01:35:19.204Z,988.1
2017-05-26T01:36:21.777Z,988.1
2017-05-26T01:37:24.295Z,988.2
2017-05-26T01:38:26.854Z,988.1
2017-05-26T01:39:29.444Z,988.1
2017-05-26T01:40:31.918Z,988.2
2017-05-26T01:41:34.363Z,988.1
2017-05-26T01:42:36.824Z,988.1
2017-05-26T01:43:39.268Z,988.1
2017-05-26T01:44:41.801Z,988.2
2017-05-26T01:45:44.282Z,988.2
2017-05-26T01:46:47.719Z,988.2
2017-05-26T01:47:50.255Z,988.2
2017-05-26T01:48:52.708Z,988.1
2017-05-26T01:49:55.184Z,988.2
2017-05-26T01:50:57.817Z,988.2
2017-05-26T01:52:00.503Z,988.2
2017-05-26T01:53:02.957Z,988.2
2017-05-26T01:54:05.447Z,988.2
2017-05-26T01:55:08.096Z,988.1
2017-05-26T01:56:10.797Z,988.2
2017-05-26T01:57:13.300Z,988.1
2017-05-26T01:58:15.849Z,988.2
2017-05-26T01:59:18.324Z,988.1
2017-05-26T02:00:20.989Z,988.2
2017-05-26T02:01:23.469Z,988.2
2017-05-26T02:02:25.929Z,988.2
2017-05-26T02:03:28.356Z,988.2
2017-05-26T02:04:30.811Z,988.2
2017-05-26T02:05:33.315Z,988.2
2017-05-26T02:06:35.792Z,988.2
2017-05-26T02:07:38.216Z,988.1
2017-05-26T02:08:40.660Z,988.1
2017-05-26T02:09:43.097Z,988.1
2017-05-26T02:10:45.546Z,988.1
2017-05-26T02:11:47.953Z,988.1
2017-05-26T02:12:50.388Z,988.1
2017-05-26T02:13:53.070Z,988.1
2017-05-26T02:14:55.471Z,988
2017-05-26T02:15:58.470Z,988.2
2017-05-26T02:17:00.947Z,988.2
2017-05-26T02:18:03.525Z,988.2
2017-05-26T02:19:06.442Z,988.2
2017-05-26T02:20:09.194Z,988
2017-05-26T02:21:12.114Z,988.2
2017-05-26T02:22:14.620Z,988.1
2017-05-26T02:23:17.155Z,988.2
2017-05-26T02:24:19.921Z,988.1
2017-05-26T02:25:23.236Z,988.1
2017-05-26T02:26:25.702Z,988.1
2017-05-26T02:27:28.297Z,988.1
2017-05-26T02:28:31.642Z,988
2017-05-26T02:29:34.097Z,988.1
2017-05-26T02:30:36.620Z,988
2017-05-26T02:31:39.084Z,988.1
2017-05-26T02:32:41.653Z,988.1
2017-05-26T02:33:44.092Z,988
2017-05-26T02:34:46.524Z,988
2017-05-26T02:35:48.988Z,988
2017-05-26T02:36:51.446Z,987.8
2017-05-26T02:37:54.053Z,988
2017-05-26T02:38:56.516Z,988
2017-05-26T02:39:59.557Z,987.9
2017-05-26T02:41:02.018Z,988
2017-05-26T02:42:04.515Z,988.1
2017-05-26T02:43:06.996Z,988.1
2017-05-26T02:44:09.500Z,988
2017-05-26T02:45:12.150Z,988.1
2017-05-26T02:46:14.634Z,988.1
2017-05-26T02:47:17.429Z,988.1
2017-05-26T02:48:19.952Z,988.1
2017-05-26T02:49:22.465Z,988.1
2017-05-26T02:50:24.966Z,988.1
2017-05-26T02:51:27.559Z,988.1
2017-05-26T02:52:30.046Z,988.1
2017-05-26T02:53:32.620Z,988.1
2017-05-26T02:54:35.067Z,988.1
2017-05-26T02:55:37.553Z,988.1
2017-05-26T02:56:40.097Z,988.2
2017-05-26T02:57:42.532Z,988.1
2017-05-26T02:58:44.945Z,988.2
2017-05-26T02:59:47.425Z,988.2
2017-05-26T03:00:49.873Z,988.2
2017-05-26T03:01:52.312Z,988.1
2017-05-26T03:02:54.748Z,988.2
2017-05-26T03:03:58.211Z,988.2
2017-05-26T03:05:00.733Z,988.2
2017-05-26T03:06:03.264Z,988.2
2017-05-26T03:07:05.715Z,988.2
2017-05-26T03:08:08.151Z,988.2
2017-05-26T03:09:10.721Z,988.2
2017-05-26T03:10:13.250Z,988.3
2017-05-26T03:11:15.744Z,988.2
2017-05-26T03:12:18.870Z,988.2
2017-05-26T03:13:21.458Z,988.2
2017-05-26T03:14:24.026Z,988.2
2017-05-26T03:15:27.559Z,988.2
2017-05-26T03:16:30.024Z,988.2
2017-05-26T03:17:32.478Z,988.2
2017-05-26T03:18:35.881Z,988.2
2017-05-26T03:19:38.356Z,988.2
2017-05-26T03:20:40.805Z,988.2
2017-05-26T03:21:43.261Z,988.2
2017-05-26T03:22:45.685Z,988.2
2017-05-26T03:23:48.169Z,988.2
2017-05-26T03:24:50.635Z,988.3
2017-05-26T03:25:53.090Z,988.3
2017-05-26T03:26:55.568Z,988.2
2017-05-26T03:27:58.085Z,988.1
2017-05-26T03:29:00.604Z,988.2
2017-05-26T03:30:05.281Z,988.1
2017-05-26T03:31:08.763Z,988.3
2017-05-26T03:32:11.323Z,988.2
2017-05-26T03:33:13.837Z,988.2
2017-05-26T03:34:16.329Z,988.2
2017-05-26T03:35:18.928Z,988.2
2017-05-26T03:36:21.564Z,988.2
2017-05-26T03:37:24.103Z,988.2
2017-05-26T03:38:26.605Z,988.2
2017-05-26T03:39:28.990Z,988.2
2017-05-26T03:40:32.348Z,988
2017-05-26T03:41:34.829Z,988.2
2017-05-26T03:42:37.299Z,988.3
2017-05-26T03:43:39.751Z,988.3
2017-05-26T03:44:42.212Z,988.3
2017-05-26T03:45:44.614Z,988.3
2017-05-26T03:46:48.078Z,988.3
2017-05-26T03:47:50.642Z,988.3
2017-05-26T03:48:53.083Z,988.3
2017-05-26T03:49:55.607Z,988.4
2017-05-26T03:50:58.220Z,988.4
2017-05-26T03:52:00.675Z,988.4
2017-05-26T03:53:03.182Z,988.4
2017-05-26T03:54:05.681Z,988.4
2017-05-26T03:55:08.338Z,988.4
2017-05-26T03:56:11.817Z,988.4
2017-05-26T03:57:14.831Z,988.4
2017-05-26T03:58:18.053Z,988.4
2017-05-26T03:59:22.714Z,988.3
2017-05-26T04:00:25.246Z,988.4
2017-05-26T04:01:27.784Z,988.4
2017-05-26T04:02:30.296Z,988.4
2017-05-26T04:03:33.143Z,988.4
2017-05-26T04:04:35.614Z,988.4
2017-05-26T04:05:38.350Z,988.2
2017-05-26T04:06:40.780Z,988.4
2017-05-26T04:07:43.260Z,988.3
2017-05-26T04:08:45.727Z,988.4
2017-05-26T04:09:48.241Z,988.4
2017-05-26T04:10:50.708Z,988.4
2017-05-26T04:11:53.147Z,988.4
2017-05-26T04:12:55.578Z,988.4
2017-05-26T04:13:58.047Z,988.4
2017-05-26T04:15:00.570Z,988.4
2017-05-26T04:16:03.086Z,988.5
2017-05-26T04:17:05.689Z,988.5
2017-05-26T04:18:09.333Z,988.4
2017-05-26T04:19:12.038Z,988.5
2017-05-26T04:20:14.568Z,988.5
2017-05-26T04:21:17.333Z,988.5
2017-05-26T04:22:19.904Z,988.5
2017-05-26T04:23:22.519Z,988.5
2017-05-26T04:24:25.587Z,988.5
2017-05-26T04:25:28.288Z,988.5
2017-05-26T04:26:30.796Z,988.5
2017-05-26T04:27:33.253Z,988.4
2017-05-26T04:28:35.838Z,988.5
2017-05-26T04:29:38.340Z,988.4
2017-05-26T04:30:41.439Z,988.4
2017-05-26T04:31:44.784Z,988.4
2017-05-26T04:32:47.268Z,988.4
2017-05-26T04:33:49.809Z,988.4
2017-05-26T04:34:52.454Z,988.4
2017-05-26T04:35:55.002Z,988.5
2017-05-26T04:36:57.478Z,988.5
2017-05-26T04:38:00.021Z,988.4
2017-05-26T04:39:03.121Z,988.4
2017-05-26T04:40:08.260Z,988.4
2017-05-26T04:41:10.780Z,988.4
2017-05-26T04:42:13.202Z,988.4
2017-05-26T04:43:15.729Z,988.4
2017-05-26T04:44:18.270Z,988.4
2017-05-26T04:45:21.923Z,988.4
2017-05-26T04:46:24.422Z,988.4
2017-05-26T04:47:28.019Z,988.4
2017-05-26T04:48:30.656Z,988.4
2017-05-26T04:49:33.242Z,988.4
2017-05-26T04:50:35.883Z,988.4
2017-05-26T04:51:38.358Z,988.4
2017-05-26T04:52:40.879Z,988.3
2017-05-26T04:53:43.381Z,988.4
2017-05-26T04:54:45.903Z,988.4
2017-05-26T04:55:48.402Z,988.4
2017-05-26T04:56:50.889Z,988.3
2017-05-26T04:57:53.391Z,988.4
2017-05-26T04:58:55.861Z,988.4
2017-05-26T04:59:58.416Z,988.4
2017-05-26T05:01:02.453Z,988.4
2017-05-26T05:02:05.609Z,988.4
2017-05-26T05:03:08.099Z,988.4
2017-05-26T05:04:10.801Z,988.4
2017-05-26T05:05:13.951Z,988.4
2017-05-26T05:06:16.491Z,988.4
2017-05-26T05:07:20.009Z,988.4
2017-05-26T05:08:22.567Z,988.4
2017-05-26T05:09:25.115Z,988.4
2017-05-26T05:10:27.934Z,988.4
2017-05-26T05:11:30.549Z,988.4
2017-05-26T05:12:33.745Z,988.4
2017-05-26T05:13:36.302Z,988.4
2017-05-26T05:14:38.999Z,988.4
2017-05-26T05:15:41.595Z,988.4
2017-05-26T05:16:44.142Z,988.4
2017-05-26T05:17:46.604Z,988.4
2017-05-26T05:18:49.135Z,988.4
2017-05-26T05:19:51.658Z,988.3
2017-05-26T05:20:54.144Z,988.4
2017-05-26T05:21:56.707Z,988.4
2017-05-26T05:22:59.204Z,988.4
2017-05-26T05:24:02.231Z,988.3
2017-05-26T05:25:10.537Z,988.4
2017-05-26T05:26:13.068Z,988.4
2017-05-26T05:27:15.628Z,988.4
2017-05-26T05:28:18.123Z,988.3
2017-05-26T05:29:20.890Z,988.4
2017-05-26T05:30:24.180Z,988.3
2017-05-26T05:31:26.777Z,988.3
2017-05-26T05:32:29.414Z,988.3
2017-05-26T05:33:31.955Z,988.3
2017-05-26T05:34:34.733Z,988.4
2017-05-26T05:35:40.760Z,988.3
2017-05-26T05:36:43.260Z,988.2
2017-05-26T05:37:45.763Z,988.5
2017-05-26T05:38:48.290Z,988.5
2017-05-26T05:39:50.836Z,988.5
2017-05-26T05:40:53.945Z,988.4
2017-05-26T05:41:56.455Z,988.4
2017-05-26T05:42:58.962Z,988.4
2017-05-26T05:44:01.529Z,988.4
2017-05-26T05:45:08.270Z,988.4
2017-05-26T05:46:11.010Z,988.4
2017-05-26T05:47:13.572Z,988.3
2017-05-26T05:48:16.126Z,988.4
2017-05-26T05:49:18.675Z,988.3
2017-05-26T05:50:22.263Z,988.2
2017-05-26T05:51:24.899Z,988.3
2017-05-26T05:52:27.431Z,988.4
2017-05-26T05:53:30.042Z,988.3
2017-05-26T05:54:32.876Z,988.4
2017-05-26T05:55:35.696Z,988.5
2017-05-26T05:56:38.218Z,988.4
2017-05-26T05:57:40.751Z,988.4
2017-05-26T05:58:43.438Z,988.4
2017-05-26T05:59:45.879Z,988.4
2017-05-26T06:00:50.026Z,988.4
2017-05-26T06:01:53.084Z,988.4
2017-05-26T06:02:56.616Z,988.4
2017-05-26T06:03:59.169Z,988.4
2017-05-26T06:05:01.865Z,988.6
2017-05-26T06:06:07.194Z,988.4
2017-05-26T06:07:10.970Z,988.5
2017-05-26T06:08:13.483Z,988.4
2017-05-26T06:09:15.981Z,988.4
2017-05-26T06:10:18.481Z,988.4
2017-05-26T06:11:21.184Z,988.5
2017-05-26T06:12:23.778Z,988.5
2017-05-26T06:13:26.315Z,988.5
2017-05-26T06:14:29.426Z,988.6
2017-05-26T06:15:32.189Z,988.5
2017-05-26T06:16:34.725Z,988.5
2017-05-26T06:17:37.429Z,988.3
2017-05-26T06:18:40.638Z,988.5
2017-05-26T06:19:43.139Z,988.5
2017-05-26T06:20:45.661Z,988.5
2017-05-26T06:21:48.100Z,988.5
2017-05-26T06:22:50.704Z,988.6
2017-05-26T06:23:53.277Z,988.7
2017-05-26T06:24:56.368Z,988.7
2017-05-26T06:25:58.948Z,988.6
2017-05-26T06:27:04.436Z,988.5
2017-05-26T06:28:07.830Z,988.6
2017-05-26T06:29:11.518Z,988.6
2017-05-26T06:30:15.854Z,988.6
2017-05-26T06:31:18.414Z,988.5
2017-05-26T06:32:21.020Z,988.5
2017-05-26T06:33:24.545Z,988.5
2017-05-26T06:34:27.281Z,988.6
2017-05-26T06:35:29.799Z,988.6
2017-05-26T06:37:44.608Z,988.6
2017-05-26T06:38:47.118Z,988.7
2017-05-26T06:39:50.586Z,988.5
2017-05-26T06:40:54.254Z,988.6
2017-05-26T06:41:57.461Z,988.5
2017-05-26T06:42:59.979Z,988.5
2017-05-26T06:44:03.523Z,988.6
2017-05-26T06:45:09.852Z,988.5
2017-05-26T06:46:12.475Z,988.6
2017-05-26T06:47:15.107Z,988.6
2017-05-26T06:48:17.748Z,988.6
2017-05-26T06:49:20.470Z,988.6
2017-05-26T06:50:23.142Z,988.7
2017-05-26T06:51:26.351Z,988.6
2017-05-26T06:52:29.052Z,988.6
2017-05-26T06:53:34.527Z,988.5
2017-05-26T06:54:37.279Z,988.6
2017-05-26T06:55:39.940Z,988.6
2017-05-26T06:56:42.532Z,988.6
2017-05-26T06:57:45.601Z,988.6
2017-05-26T06:58:48.084Z,988.6
2017-05-26T06:59:50.664Z,988.6
2017-05-26T07:00:54.630Z,988.6
2017-05-26T07:01:57.181Z,988.6
2017-05-26T07:03:00.747Z,988.6
2017-05-26T07:04:06.393Z,988.6
2017-05-26T07:05:14.807Z,988.6
2017-05-26T07:06:18.202Z,988.6
2017-05-26T07:07:20.870Z,988.6
2017-05-26T07:08:24.196Z,988.5
2017-05-26T07:09:27.997Z,988.4
2017-05-26T07:10:41.347Z,988.4
2017-05-26T07:11:43.965Z,988.5
2017-05-26T07:12:46.559Z,988.6
2017-05-26T07:13:49.216Z,988.5
2017-05-26T07:14:51.802Z,988.6
2017-05-26T07:15:54.335Z,988.6
2017-05-26T07:16:56.930Z,988.6
2017-05-26T07:17:59.453Z,988.5
2017-05-26T07:19:02.124Z,988.4
2017-05-26T07:21:19.913Z,988.5
2017-05-26T07:22:22.635Z,988.5
2017-05-26T07:23:25.971Z,988.5
2017-05-26T07:24:28.722Z,988.5
2017-05-26T07:25:31.743Z,988.5
2017-05-26T07:26:34.682Z,988.5
2017-05-26T07:27:38.253Z,988.5
2017-05-26T07:28:40.931Z,988.4
2017-05-26T07:29:43.772Z,988.5
2017-05-26T07:30:47.142Z,988.6
2017-05-26T07:31:49.730Z,988.5
2017-05-26T07:32:53.078Z,988.5
2017-05-26T07:33:55.822Z,988.5
2017-05-26T07:34:58.918Z,988.5
2017-05-26T07:36:04.508Z,988.5
2017-05-26T07:37:10.378Z,988.5
2017-05-26T07:38:13.596Z,988.5
2017-05-26T07:39:16.956Z,988.5
2017-05-26T07:40:20.818Z,988.5
2017-05-26T07:41:24.248Z,988.4
2017-05-26T07:42:26.844Z,988.6
2017-05-26T07:43:31.171Z,988.6
2017-05-26T07:44:34.610Z,988.5
2017-05-26T07:45:38.635Z,988.5
2017-05-26T07:46:42.035Z,988.5
2017-05-26T07:47:45.320Z,988.5
2017-05-26T07:48:47.951Z,988.5
2017-05-26T07:49:50.654Z,988.6
2017-05-26T07:50:53.478Z,988.5
2017-05-26T07:51:56.122Z,988.6
2017-05-26T07:52:59.364Z,988.5
2017-05-26T07:54:02.179Z,988.5
2017-05-26T07:55:12.095Z,988.5
2017-05-26T07:56:16.633Z,988.4
2017-05-26T07:57:19.479Z,988.4
2017-05-26T07:58:22.247Z,988.4
2017-05-26T07:59:24.897Z,988.4
2017-05-26T08:00:31.803Z,988.4
2017-05-26T08:01:35.391Z,988.4
2017-05-26T08:02:39.029Z,988.4
2017-05-26T08:03:44.033Z,988.4
2017-05-26T08:04:50.578Z,988.4
2017-05-26T08:05:56.146Z,988.5
2017-05-26T08:06:58.983Z,988.5
2017-05-26T08:08:01.702Z,988.4
2017-05-26T08:09:07.133Z,988.5
2017-05-26T08:10:16.385Z,988.4
2017-05-26T08:11:19.913Z,988.4
2017-05-26T08:12:23.359Z,988.4
2017-05-26T08:13:27.806Z,988.4
2017-05-26T08:14:31.461Z,988.3
2017-05-26T08:15:35.531Z,988.4
2017-05-26T08:16:40.656Z,988.4
2017-05-26T08:17:43.437Z,988.3
2017-05-26T08:18:46.092Z,988.4
2017-05-26T08:19:48.795Z,988.3
2017-05-26T08:20:53.249Z,988.3
2017-05-26T08:21:56.401Z,988.3
2017-05-26T08:22:59.023Z,988.4
2017-05-26T08:24:01.741Z,988.3
2017-05-26T08:25:11.705Z,988.3
2017-05-26T08:26:16.182Z,988.3
2017-05-26T08:27:21.188Z,988.3
2017-05-26T08:28:25.544Z,988.2
2017-05-26T08:29:29.210Z,988.2
2017-05-26T08:30:32.051Z,988.4
2017-05-26T08:31:36.063Z,988.3
2017-05-26T08:32:41.172Z,988.3
2017-05-26T08:33:47.294Z,988.3
2017-05-26T08:34:50.220Z,988.3
2017-05-26T08:35:52.935Z,988.3
2017-05-26T08:36:55.739Z,988.3
2017-05-26T08:37:59.210Z,988.3
2017-05-26T08:39:08.512Z,988.3
2017-05-26T08:41:22.981Z,988.3
2017-05-26T08:42:28.949Z,988.3
2017-05-26T08:43:32.611Z,988.3
2017-05-26T08:44:35.392Z,988.3
2017-05-26T08:45:42.070Z,988.3
2017-05-26T08:46:46.054Z,988.3
2017-05-26T08:47:48.781Z,988.3
2017-05-26T08:48:51.587Z,988.3
2017-05-26T08:49:54.273Z,988.3
2017-05-26T08:50:59.654Z,988.3
2017-05-26T08:52:02.394Z,988.2
2017-05-26T08:53:06.494Z,988.2
2017-05-26T08:54:11.538Z,988.2
2017-05-26T08:55:19.177Z,988.1
2017-05-26T08:56:22.551Z,988.1
2017-05-26T08:57:27.260Z,988.1
2017-05-26T08:58:30.973Z,988.1
2017-05-26T08:59:39.610Z,988.1
2017-05-26T09:00:48.623Z,988.1
2017-05-26T09:01:55.502Z,988.2
2017-05-26T09:02:59.580Z,988.1
2017-05-26T09:04:02.344Z,988.2
2017-05-26T09:05:15.827Z,988.1
2017-05-26T09:06:18.494Z,988.1
2017-05-26T09:07:21.894Z,988.1
2017-05-26T09:08:25.434Z,988.1
2017-05-26T09:09:31.012Z,988.1
2017-05-26T09:10:34.700Z,988
2017-05-26T09:11:38.130Z,988.1
2017-05-26T09:12:41.027Z,988
2017-05-26T09:13:44.800Z,988
2017-05-26T09:14:47.802Z,988
2017-05-26T09:15:55.467Z,988
2017-05-26T09:18:10.792Z,987.9
2017-05-26T09:19:14.849Z,987.9
2017-05-26T09:20:20.278Z,987.9
2017-05-26T09:21:22.960Z,987.9
2017-05-26T09:22:26.332Z,987.9
2017-05-26T09:23:30.965Z,987.8
2017-05-26T09:24:34.756Z,988
2017-05-26T09:25:39.770Z,987.9
2017-05-26T09:26:43.700Z,987.9
2017-05-26T09:27:46.920Z,987.9
2017-05-26T09:28:50.558Z,987.9
2017-05-26T09:29:55.032Z,987.9
2017-05-26T09:30:59.172Z,987.9
2017-05-26T09:32:05.961Z,987.9
2017-05-26T09:33:14.213Z,987.8
2017-05-26T09:34:18.060Z,987.7
2017-05-26T09:35:28.622Z,987.8
2017-05-26T09:36:36.253Z,987.8
2017-05-26T09:37:41.892Z,987.8
2017-05-26T09:38:47.377Z,987.8
2017-05-26T09:39:53.363Z,987.7
2017-05-26T09:40:59.230Z,987.8
2017-05-26T09:42:01.889Z,987.8
2017-05-26T09:43:07.062Z,987.7
2017-05-26T09:44:10.519Z,987.7
2017-05-26T09:45:15.721Z,987.6
2017-05-26T09:46:19.537Z,987.7
2017-05-26T09:47:26.655Z,987.7
2017-05-26T09:48:38.211Z,987.8
2017-05-26T09:49:41.052Z,987.7
2017-05-26T09:50:47.856Z,987.7
2017-05-26T09:53:01.746Z,987.5
2017-05-26T09:54:12.182Z,987.6
2017-05-26T09:55:20.999Z,987.6
2017-05-26T09:56:34.962Z,987.6
2017-05-26T09:57:40.866Z,987.7
2017-05-26T09:58:45.040Z,987.5
2017-05-26T09:59:52.675Z,987.6
2017-05-26T10:01:08.247Z,987.6
2017-05-26T10:02:12.726Z,987.5
2017-05-26T10:03:17.232Z,987.5
2017-05-26T10:04:21.378Z,987.5
2017-05-26T10:05:31.241Z,987.6
2017-05-26T10:06:40.779Z,987.5
2017-05-26T10:07:45.682Z,987.5
2017-05-26T10:08:48.477Z,987.6
2017-05-26T10:09:55.655Z,987.5
2017-05-26T10:11:01.827Z,987.5
2017-05-26T10:12:09.134Z,987.5
2017-05-26T10:13:13.323Z,987.5
2017-05-26T10:14:18.324Z,987.5
2017-05-26T10:16:44.252Z,987.5
2017-05-26T10:17:48.513Z,987.5
2017-05-26T10:18:52.178Z,987.6
2017-05-26T10:19:55.466Z,987.6
2017-05-26T10:20:59.161Z,987.6
2017-05-26T10:22:01.753Z,987.5
2017-05-26T10:24:12.046Z,987.6
2017-05-26T10:25:17.935Z,987.5
2017-05-26T10:26:22.883Z,987.5
2017-05-26T10:27:27.677Z,987.5
2017-05-26T10:28:31.760Z,987.5
2017-05-26T10:29:35.250Z,987.5
2017-05-26T10:30:43.485Z,987.5
2017-05-26T10:31:47.850Z,987.4
2017-05-26T10:32:57.230Z,987.5
2017-05-26T10:34:01.287Z,987.4
2017-05-26T10:35:12.723Z,987.6
2017-05-26T10:36:19.127Z,987.5
2017-05-26T10:37:24.185Z,987.5
2017-05-26T10:38:29.875Z,987.5
2017-05-26T10:39:34.920Z,987.5
2017-05-26T10:40:38.877Z,987.5
2017-05-26T10:41:41.682Z,987.4
2017-05-26T10:42:45.544Z,987.5
2017-05-26T10:43:50.187Z,987.5
2017-05-26T10:44:53.263Z,987.5
2017-05-26T10:46:00.745Z,987.2
2017-05-26T10:47:05.726Z,987.4
2017-05-26T10:48:13.227Z,987.4
2017-05-26T10:49:21.202Z,987.4
2017-05-26T10:50:25.979Z,987.3
2017-05-26T10:51:28.793Z,987.5
2017-05-26T10:52:32.760Z,987.4
2017-05-26T10:53:38.015Z,987.4
2017-05-26T10:54:43.857Z,987.4
2017-05-26T10:55:47.810Z,987.4
2017-05-26T10:56:50.659Z,987.3
2017-05-26T10:57:54.131Z,987.4
2017-05-26T10:58:56.931Z,987.3
2017-05-26T10:59:59.946Z,987.4
2017-05-26T11:01:06.554Z,987.3
2017-05-26T11:02:12.002Z,987.4
2017-05-26T11:03:18.507Z,987.4
2017-05-26T11:04:25.387Z,987.3
2017-05-26T11:06:45.998Z,987.3
2017-05-26T11:07:57.218Z,987.3
2017-05-26T11:09:01.037Z,987.1
2017-05-26T11:11:28.847Z,987.2
2017-05-26T11:12:36.926Z,987.2
2017-05-26T11:13:50.982Z,987.2
2017-05-26T11:14:53.844Z,987.2
2017-05-26T11:15:57.622Z,987.2
2017-05-26T11:17:00.271Z,987.2
2017-05-26T11:18:08.398Z,987.1
2017-05-26T11:19:16.369Z,987.2
2017-05-26T11:20:26.220Z,987.2
2017-05-26T11:21:29.134Z,987.1
2017-05-26T11:22:32.082Z,987.1
2017-05-26T11:23:41.541Z,987.1
2017-05-26T11:24:45.481Z,987
2017-05-26T11:25:50.805Z,987.1
2017-05-26T11:26:54.320Z,987.1
2017-05-26T11:28:01.166Z,987.1
2017-05-26T11:29:08.117Z,987.1
2017-05-26T11:30:19.125Z,987.1
2017-05-26T11:31:24.557Z,987.1
2017-05-26T11:32:27.704Z,987
2017-05-26T11:33:31.758Z,987.1
2017-05-26T11:34:37.211Z,987.2
2017-05-26T11:36:53.236Z,987.1
2017-05-26T11:37:57.258Z,987.1
2017-05-26T11:40:18.215Z,987
2017-05-26T11:41:25.459Z,987
2017-05-26T11:42:28.502Z,987
2017-05-26T11:43:33.862Z,987
2017-05-26T11:44:43.319Z,987.1
2017-05-26T11:45:54.972Z,987.2
2017-05-26T11:48:16.157Z,987
2017-05-26T11:49:21.694Z,986.9
2017-05-26T11:50:32.613Z,987
2017-05-26T11:51:37.573Z,987
2017-05-26T11:52:41.063Z,987.1
2017-05-26T11:53:45.479Z,987.1
2017-05-26T11:54:49.017Z,987.1
2017-05-26T11:55:53.195Z,987.1
2017-05-26T11:56:57.051Z,987
2017-05-26T11:57:59.666Z,986.9
2017-05-26T11:59:04.565Z,987
2017-05-26T12:00:19.393Z,987
2017-05-26T12:01:22.851Z,987.1
2017-05-26T12:02:26.367Z,987
2017-05-26T12:03:32.556Z,987
2017-05-26T12:04:38.058Z,986.9
2017-05-26T12:05:46.006Z,987
2017-05-26T12:06:53.661Z,986.9
2017-05-26T12:07:59.452Z,986.9
2017-05-26T12:09:03.570Z,986.9
2017-05-26T12:10:16.845Z,986.8
2017-05-26T12:11:20.511Z,986.8
2017-05-26T12:12:23.320Z,986.8
2017-05-26T12:13:26.669Z,986.9
2017-05-26T12:14:30.873Z,986.9
2017-05-26T12:15:36.830Z,986.8
2017-05-26T12:16:41.395Z,986.9
2017-05-26T12:17:45.292Z,986.9
2017-05-26T12:18:51.304Z,986.9
2017-05-26T12:19:54.960Z,986.9
2017-05-26T12:21:00.033Z,986.9
2017-05-26T12:22:07.180Z,987
2017-05-26T12:23:11.182Z,986.9
2017-05-26T12:24:16.848Z,987
2017-05-26T12:25:20.795Z,986.9
2017-05-26T12:26:24.214Z,986.9
2017-05-26T12:27:29.724Z,986.9
2017-05-26T12:29:48.541Z,986.9
2017-05-26T12:30:54.706Z,986.9
2017-05-26T12:32:00.593Z,986.7
2017-05-26T12:33:12.097Z,986.7
2017-05-26T12:34:18.177Z,986.6
2017-05-26T12:35:26.895Z,986.9
2017-05-26T12:37:46.488Z,986.9
2017-05-26T12:38:52.439Z,986.8
2017-05-26T12:39:59.404Z,986.8
2017-05-26T12:41:11.170Z,986.8
2017-05-26T12:42:18.862Z,986.9
2017-05-26T12:43:28.343Z,986.9
2017-05-26T12:44:36.357Z,986.8
2017-05-26T12:45:46.243Z,986.8
2017-05-26T12:46:53.511Z,986.8
2017-05-26T12:47:56.548Z,986.6
2017-05-26T12:49:03.657Z,986.9
2017-05-26T12:51:20.455Z,986.8
2017-05-26T12:52:27.778Z,986.8
2017-05-26T12:54:45.793Z,986.7
2017-05-26T12:57:15.593Z,986.7
2017-05-26T12:58:28.832Z,986.7
2017-05-26T12:59:33.833Z,986.7
2017-05-26T13:00:41.019Z,986.6
2017-05-26T13:03:09.979Z,986.5
2017-05-26T13:04:16.761Z,986.7
2017-05-26T13:05:23.872Z,986.5
2017-05-26T13:06:26.799Z,986.6
2017-05-26T13:07:32.339Z,986.6
2017-05-26T13:08:35.905Z,986.6
2017-05-26T13:09:41.395Z,986.6
2017-05-26T13:12:02.167Z,986.6
2017-05-26T13:13:09.653Z,986.6
2017-05-26T13:14:13.260Z,986.6
2017-05-26T13:16:33.945Z,986.6
2017-05-26T13:17:37.737Z,986.5
2017-05-26T13:18:42.518Z,986.5
2017-05-26T13:19:52.796Z,986.4
2017-05-26T13:22:16.085Z,986.4
2017-05-26T13:23:26.368Z,986.4
2017-05-26T13:24:32.274Z,986.4
2017-05-26T13:25:41.574Z,986.5
2017-05-26T13:26:44.998Z,986.5
2017-05-26T13:27:50.525Z,986.5
2017-05-26T13:28:54.105Z,986.4
2017-05-26T13:29:59.000Z,986.4
2017-05-26T13:31:09.323Z,986.4
2017-05-26T13:32:15.064Z,986.3
2017-05-26T13:33:20.963Z,986.4
2017-05-26T13:34:25.918Z,986.4
2017-05-26T13:35:32.335Z,986.4
2017-05-26T13:36:36.424Z,986.4
2017-05-26T13:37:40.967Z,986.4
2017-05-26T13:38:44.268Z,986.4
2017-05-26T13:39:47.338Z,986.4
2017-05-26T13:40:53.038Z,986.4
2017-05-26T13:41:56.873Z,986.4
2017-05-26T13:43:00.963Z,986.4
2017-05-26T13:44:04.651Z,986.4
2017-05-26T13:45:13.762Z,986.3
2017-05-26T13:46:18.133Z,986.3
2017-05-26T13:47:23.052Z,986.2
2017-05-26T13:48:26.083Z,986.1
2017-05-26T13:49:30.842Z,986.2
2017-05-26T13:50:41.453Z,986.2
2017-05-26T13:51:47.361Z,986.3
2017-05-26T13:52:53.214Z,986.3
2017-05-26T13:53:58.340Z,986.3
2017-05-26T13:55:05.395Z,986.2
2017-05-26T13:56:18.736Z,986.3
2017-05-26T13:57:31.614Z,986.3
2017-05-26T13:58:38.031Z,986.1
2017-05-26T13:59:42.786Z,986.2
2017-05-26T14:00:54.543Z,986.2
2017-05-26T14:01:57.231Z,986.2
2017-05-26T14:02:59.944Z,986.1
2017-05-26T14:04:07.779Z,986.2
2017-05-26T14:05:21.766Z,986.1
2017-05-26T14:06:30.054Z,986.1
2017-05-26T14:07:33.022Z,986.1
2017-05-26T14:08:40.426Z,986.1
2017-05-26T14:09:44.825Z,986.1
2017-05-26T14:10:52.281Z,986.1
2017-05-26T14:11:58.893Z,986
2017-05-26T14:13:02.294Z,986